Time;durP1;ratioP1;P1;durP2;ratioP2;P2;SDS_P1;SDS_P2;PMS_P1;PMS_P2;Temp;Humidity;BMP_temperature;BMP_pressure;BME280_temperature;BME280_humidity;BME280_pressure;Samples;Min_cycle;Max_cycle;Signal;HPM_P1;HPM_P2
2023/03/04 00:02:11;;;;;;;50.13;21.43;;;2.00;99.90;;;;;;5163976;28;20192;-50
2023/03/04 00:04:41;;;;;;;44.33;22.27;;;2.00;99.90;;;;;;5164176;28;20209;-49
2023/03/04 00:07:15;;;;;;;53.07;21.93;;;2.00;99.90;;;;;;5161400;28;20284;-49
2023/03/04 00:09:46;;;;;;;51.17;22.07;;;2.10;99.90;;;;;;5163502;28;20173;-49
2023/03/04 00:12:16;;;;;;;44.73;21.43;;;2.00;99.90;;;;;;5163400;28;20447;-49
2023/03/04 00:14:47;;;;;;;45.73;20.80;;;1.90;99.90;;;;;;5163304;28;20283;-50
2023/03/04 00:17:17;;;;;;;47.37;21.30;;;2.00;99.90;;;;;;5163712;28;20184;-48
2023/03/04 00:19:48;;;;;;;47.37;20.83;;;2.10;99.90;;;;;;5164074;28;20646;-50
2023/03/04 00:22:19;;;;;;;46.57;21.97;;;2.20;99.90;;;;;;5161610;28;20208;-50
2023/03/04 00:24:49;;;;;;;46.47;21.13;;;2.40;99.90;;;;;;5161907;28;20209;-50
2023/03/04 00:27:20;;;;;;;46.17;20.33;;;2.50;99.90;;;;;;5177161;28;20542;-50
2023/03/04 00:29:51;;;;;;;47.07;20.30;;;2.50;99.90;;;;;;5163701;28;20192;-50
2023/03/04 00:32:21;;;;;;;46.93;21.00;;;2.50;99.90;;;;;;5163610;28;20228;-50
2023/03/04 00:34:52;;;;;;;52.27;22.80;;;2.60;99.90;;;;;;5162605;28;20193;-51
2023/03/04 00:37:23;;;;;;;59.37;23.17;;;2.50;99.90;;;;;;5162361;28;20641;-51
2023/03/04 00:39:53;;;;;;;58.03;21.53;;;2.60;99.90;;;;;;5164310;28;20184;-50
2023/03/04 00:42:24;;;;;;;44.50;19.80;;;2.70;99.90;;;;;;5163429;28;20184;-49
2023/03/04 00:44:55;;;;;;;44.97;19.47;;;2.60;99.90;;;;;;5165505;28;20217;-50
2023/03/04 00:47:25;;;;;;;41.77;17.93;;;2.60;99.90;;;;;;5165494;28;20748;-49
2023/03/04 00:49:56;;;;;;;41.50;18.30;;;2.70;99.90;;;;;;5166532;28;20204;-49
2023/03/04 00:52:26;;;;;;;43.80;18.30;;;2.80;99.90;;;;;;5167007;28;20185;-49
2023/03/04 00:54:57;;;;;;;40.77;17.63;;;2.70;99.90;;;;;;5164976;28;20229;-49
2023/03/04 00:57:28;;;;;;;44.07;17.87;;;2.70;99.90;;;;;;5166787;28;20201;-49
2023/03/04 00:59:59;;;;;;;38.13;16.53;;;2.80;99.90;;;;;;5164742;28;20181;-50
2023/03/04 01:02:30;;;;;;;33.80;15.50;;;2.70;99.90;;;;;;5166439;28;20318;-48
2023/03/04 01:05:00;;;;;;;40.93;16.93;;;2.70;99.90;;;;;;5165681;28;20884;-48
2023/03/04 01:07:31;;;;;;;37.00;16.37;;;2.70;99.90;;;;;;5166276;28;20212;-53
2023/03/04 01:10:02;;;;;;;41.93;17.10;;;2.70;99.90;;;;;;5167601;28;20211;-50
2023/03/04 01:12:33;;;;;;;28.93;13.27;;;2.90;99.90;;;;;;5168054;28;20245;-50
2023/03/04 01:15:04;;;;;;;44.73;13.73;;;2.80;99.90;;;;;;5166304;28;20205;-49
2023/03/04 01:17:35;;;;;;;36.17;13.30;;;2.70;99.90;;;;;;5166282;28;20500;-51
2023/03/04 01:20:07;;;;;;;35.07;12.73;;;2.70;99.90;;;;;;5165548;28;20570;-50
2023/03/04 01:22:38;;;;;;;27.27;12.60;;;2.70;99.90;;;;;;5167301;28;20431;-49
2023/03/04 01:25:09;;;;;;;40.00;13.03;;;2.80;99.90;;;;;;5165585;28;20783;-49
2023/03/04 01:27:40;;;;;;;36.67;12.80;;;2.80;99.90;;;;;;5166560;28;20212;-49
2023/03/04 01:30:11;;;;;;;37.60;11.37;;;3.00;99.90;;;;;;5167094;28;20828;-49
2023/03/04 01:32:42;;;;;;;23.07;11.13;;;2.90;99.90;;;;;;5165229;28;20181;-48
2023/03/04 01:35:12;;;;;;;26.67;12.23;;;2.90;99.90;;;;;;5166185;28;20458;-49
2023/03/04 01:37:43;;;;;;;35.60;11.70;;;2.90;99.90;;;;;;5167188;28;20208;-48
2023/03/04 01:40:14;;;;;;;29.23;11.00;;;2.90;99.90;;;;;;5165376;28;20181;-49
2023/03/04 01:42:45;;;;;;;32.23;10.57;;;3.00;99.90;;;;;;5167588;28;20185;-50
2023/03/04 01:45:18;;;;;;;31.13;11.00;;;3.10;99.90;;;;;;5167229;28;20626;-47
2023/03/04 01:47:50;;;;;;;37.70;11.00;;;3.10;99.90;;;;;;5167544;28;21073;-47
2023/03/04 01:50:31;;;;;;;24.83;9.70;;;3.20;99.90;;;;;;5166335;28;20480;-48
2023/03/04 01:53:03;;;;;;;23.93;10.07;;;3.00;99.90;;;;;;5166452;28;20424;-48
2023/03/04 01:55:33;;;;;;;25.53;9.57;;;3.10;99.90;;;;;;5166968;28;20833;-48
2023/03/04 01:58:08;;;;;;;24.40;8.60;;;3.10;99.90;;;;;;5166918;28;20432;-48
2023/03/04 02:00:39;;;;;;;31.57;8.80;;;3.20;99.90;;;;;;5166959;28;20177;-48
2023/03/04 02:03:14;;;;;;;24.67;8.90;;;3.30;99.90;;;;;;5148340;28;20435;-47
2023/03/04 02:05:48;;;;;;;31.53;9.13;;;3.20;99.90;;;;;;5171368;28;20446;-47
2023/03/04 02:08:21;;;;;;;25.97;9.90;;;3.20;99.90;;;;;;5158909;28;20444;-48
2023/03/04 02:10:53;;;;;;;20.90;7.50;;;3.20;99.90;;;;;;5165378;28;20507;-48
2023/03/04 02:13:24;;;;;;;19.90;8.23;;;3.30;99.90;;;;;;5166482;28;20463;-48
2023/03/04 02:15:54;;;;;;;37.40;9.93;;;3.30;99.90;;;;;;5165767;28;20420;-48
2023/03/04 02:18:25;;;;;;;19.80;8.27;;;3.40;99.90;;;;;;5165486;28;20626;-46
2023/03/04 02:21:08;;;;;;;22.33;8.07;;;3.40;99.90;;;;;;5162581;28;20185;-47
2023/03/04 02:23:50;;;;;;;16.93;7.40;;;3.50;99.90;;;;;;5166642;28;20543;-52
2023/03/04 02:26:23;;;;;;;14.87;6.87;;;3.40;99.90;;;;;;5165317;28;20877;-48
2023/03/04 02:28:57;;;;;;;24.63;6.70;;;3.40;99.90;;;;;;5166689;28;20455;-48
2023/03/04 02:31:35;;;;;;;20.83;7.23;;;3.40;99.90;;;;;;5164607;28;20436;-47
2023/03/04 02:34:11;;;;;;;28.70;7.73;;;3.50;99.90;;;;;;5160429;28;20444;-47
2023/03/04 02:36:42;;;;;;;23.67;7.73;;;3.40;99.90;;;;;;5176873;28;20439;-48
2023/03/04 02:39:19;;;;;;;19.83;7.20;;;3.40;99.90;;;;;;5160366;28;20468;-47
2023/03/04 02:41:52;;;;;;;12.97;6.30;;;3.50;99.90;;;;;;5167255;28;20438;-47
2023/03/04 02:44:28;;;;;;;28.80;7.27;;;3.50;99.90;;;;;;5161051;28;20479;-47
2023/03/04 02:47:00;;;;;;;22.57;6.23;;;3.60;99.90;;;;;;5165628;28;20476;-49
2023/03/04 02:49:32;;;;;;;30.67;7.20;;;3.60;99.90;;;;;;5163127;28;20570;-47
2023/03/04 02:52:06;;;;;;;28.93;7.53;;;3.60;99.90;;;;;;5157623;28;20436;-48
2023/03/04 02:54:37;;;;;;;21.20;6.87;;;3.60;99.90;;;;;;5165351;28;20460;-47
2023/03/04 02:57:10;;;;;;;17.30;7.00;;;3.80;99.90;;;;;;5163535;28;20432;-48
2023/03/04 02:59:42;;;;;;;24.47;6.20;;;3.60;99.90;;;;;;5164559;28;20483;-48
2023/03/04 03:02:12;;;;;;;16.47;6.60;;;3.60;99.90;;;;;;5157717;28;20441;-51
2023/03/04 03:04:43;;;;;;;17.90;7.07;;;3.50;99.90;;;;;;5156683;28;20823;-50
2023/03/04 03:07:13;;;;;;;26.97;6.97;;;3.70;99.90;;;;;;5159936;28;20232;-50
2023/03/04 03:09:44;;;;;;;15.00;5.73;;;3.70;99.90;;;;;;5164150;28;20212;-51
2023/03/04 03:12:15;;;;;;;25.77;6.87;;;3.70;99.90;;;;;;5163690;28;20183;-49
2023/03/04 03:14:45;;;;;;;21.83;7.07;;;3.80;99.90;;;;;;5160846;28;20263;-51
2023/03/04 03:17:16;;;;;;;24.53;6.77;;;3.70;99.90;;;;;;5161589;28;20228;-50
2023/03/04 03:19:47;;;;;;;19.07;6.07;;;3.70;99.90;;;;;;5161218;28;20174;-49
2023/03/04 03:22:17;;;;;;;17.60;4.73;;;3.70;99.90;;;;;;5164655;28;20189;-50
2023/03/04 03:24:48;;;;;;;24.20;7.00;;;3.80;99.90;;;;;;5163775;28;20209;-49
2023/03/04 03:27:18;;;;;;;21.97;5.77;;;3.80;99.90;;;;;;5176687;28;20213;-49
2023/03/04 03:29:49;;;;;;;33.17;6.70;;;3.80;99.90;;;;;;5163226;28;20268;-49
2023/03/04 03:32:20;;;;;;;9.87;5.07;;;3.90;99.90;;;;;;5156781;28;20677;-49
2023/03/04 03:34:50;;;;;;;13.97;5.40;;;3.90;99.90;;;;;;5159551;28;20205;-51
2023/03/04 03:37:21;;;;;;;14.40;6.10;;;3.90;99.90;;;;;;5163502;28;20271;-50
2023/03/04 03:39:52;;;;;;;10.33;5.07;;;3.80;99.90;;;;;;5155682;28;20251;-49
2023/03/04 03:42:22;;;;;;;26.50;5.97;;;3.80;99.90;;;;;;5155778;28;20189;-49
2023/03/04 03:44:54;;;;;;;17.67;4.90;;;3.70;99.90;;;;;;5160947;28;20312;-49
2023/03/04 03:47:25;;;;;;;21.97;6.33;;;3.80;99.90;;;;;;5160821;28;20263;-50
2023/03/04 03:49:56;;;;;;;12.60;5.87;;;3.60;99.90;;;;;;5156073;28;20441;-50
2023/03/04 03:52:26;;;;;;;17.83;6.17;;;3.80;99.90;;;;;;5147393;28;20220;-49
2023/03/04 03:55:00;;;;;;;17.37;6.07;;;3.70;99.90;;;;;;5164317;28;20681;-49
2023/03/04 03:57:31;;;;;;;15.03;5.87;;;3.80;99.90;;;;;;5162784;28;20606;-48
2023/03/04 04:00:02;;;;;;;15.50;5.70;;;3.70;99.90;;;;;;5163718;28;20444;-51
2023/03/04 04:02:33;;;;;;;24.97;6.47;;;3.80;99.90;;;;;;5161258;28;20556;-49
2023/03/04 04:05:05;;;;;;;21.40;4.87;;;3.90;99.90;;;;;;5164474;28;20454;-48
2023/03/04 04:07:36;;;;;;;16.10;5.17;;;3.80;99.90;;;;;;5177303;28;20288;-50
2023/03/04 04:10:09;;;;;;;18.17;5.80;;;3.90;99.90;;;;;;5157161;28;20483;-49
2023/03/04 04:12:40;;;;;;;25.60;5.73;;;3.90;99.90;;;;;;5161577;28;20482;-50
2023/03/04 04:15:11;;;;;;;17.87;4.90;;;3.90;99.90;;;;;;5162952;28;20455;-49
2023/03/04 04:17:42;;;;;;;19.93;5.93;;;4.00;99.90;;;;;;5170384;28;20213;-49
2023/03/04 04:20:12;;;;;;;13.17;5.43;;;3.90;99.90;;;;;;5165664;28;20437;-50
2023/03/04 04:22:43;;;;;;;18.53;5.33;;;4.00;99.90;;;;;;5161288;28;20588;-49
2023/03/04 04:25:14;;;;;;;22.10;5.20;;;4.00;99.90;;;;;;5163818;28;20201;-52
2023/03/04 04:27:44;;;;;;;15.50;3.93;;;4.10;99.90;;;;;;5140943;28;20232;-49
2023/03/04 04:30:15;;;;;;;15.80;4.10;;;4.20;99.90;;;;;;5161627;28;20272;-49
2023/03/04 04:32:45;;;;;;;12.93;4.83;;;4.20;99.90;;;;;;5154959;28;20188;-51
2023/03/04 04:35:16;;;;;;;11.83;4.33;;;4.10;99.90;;;;;;5166387;28;20588;-50
2023/03/04 04:37:47;;;;;;;16.50;4.67;;;4.10;99.90;;;;;;5158895;28;20178;-50
2023/03/04 04:40:17;;;;;;;20.07;5.30;;;4.20;99.90;;;;;;5164486;28;20646;-50
2023/03/04 04:42:48;;;;;;;12.40;4.20;;;4.00;99.90;;;;;;5160321;28;20213;-48
2023/03/04 04:45:19;;;;;;;11.80;3.40;;;4.10;99.90;;;;;;5159867;28;20285;-49
2023/03/04 04:47:51;;;;;;;15.00;4.07;;;4.10;99.90;;;;;;5163287;28;20701;-48
2023/03/04 04:50:23;;;;;;;8.70;3.50;;;4.10;99.90;;;;;;5160554;28;20186;-49
2023/03/04 04:52:54;;;;;;;8.20;4.10;;;4.10;99.90;;;;;;5164522;28;20499;-49
2023/03/04 04:55:25;;;;;;;22.43;3.53;;;4.20;99.90;;;;;;5156347;28;20445;-49
2023/03/04 04:57:56;;;;;;;12.23;3.57;;;4.20;99.90;;;;;;5162556;28;20225;-49
2023/03/04 05:00:26;;;;;;;17.00;4.10;;;4.20;99.90;;;;;;5162639;28;20472;-50
2023/03/04 05:02:57;;;;;;;15.50;3.70;;;4.30;99.90;;;;;;5157817;28;20216;-49
2023/03/04 05:05:28;;;;;;;9.23;3.60;;;4.40;99.90;;;;;;5160954;28;20212;-48
2023/03/04 05:07:58;;;;;;;15.03;3.60;;;4.30;99.90;;;;;;5162783;28;20210;-49
2023/03/04 05:10:29;;;;;;;13.00;3.40;;;4.30;99.90;;;;;;5164884;28;20230;-49
2023/03/04 05:13:00;;;;;;;6.43;3.50;;;4.40;99.90;;;;;;5159588;28;20215;-48
2023/03/04 05:15:30;;;;;;;11.90;4.50;;;4.30;99.90;;;;;;5151608;28;20619;-49
2023/03/04 05:18:01;;;;;;;10.27;2.80;;;4.40;99.90;;;;;;5158842;28;20250;-51
2023/03/04 05:20:31;;;;;;;7.13;2.90;;;4.50;99.90;;;;;;5176495;28;20189;-49
2023/03/04 05:23:02;;;;;;;6.33;2.90;;;4.40;99.90;;;;;;5161826;28;20668;-48
2023/03/04 05:25:33;;;;;;;9.10;3.37;;;4.40;99.90;;;;;;5162382;28;20233;-50
2023/03/04 05:28:06;;;;;;;14.23;3.33;;;4.50;99.90;;;;;;5162898;28;20474;-50
2023/03/04 05:30:39;;;;;;;15.67;2.43;;;4.50;99.90;;;;;;5176570;28;20209;-50
2023/03/04 05:33:12;;;;;;;8.30;2.87;;;4.50;99.90;;;;;;5163641;28;20468;-49
2023/03/04 05:35:44;;;;;;;11.17;3.27;;;4.40;99.90;;;;;;5168997;28;20440;-49
2023/03/04 05:38:18;;;;;;;16.03;3.20;;;4.50;99.90;;;;;;5166792;28;20487;-49
2023/03/04 05:40:49;;;;;;;15.40;2.80;;;4.50;99.90;;;;;;5159970;28;20440;-49
2023/03/04 05:43:21;;;;;;;10.87;3.00;;;4.60;99.90;;;;;;5164856;28;20796;-49
2023/03/04 05:45:52;;;;;;;9.67;2.90;;;4.70;99.90;;;;;;5164964;28;20583;-50
2023/03/04 05:48:23;;;;;;;5.63;3.40;;;4.60;99.90;;;;;;5164395;28;20446;-50
2023/03/04 05:50:58;;;;;;;8.17;3.23;;;4.60;99.90;;;;;;5164186;28;20434;-48
2023/03/04 05:53:29;;;;;;;11.77;4.10;;;4.60;99.90;;;;;;5160353;28;20616;-49
2023/03/04 05:56:05;;;;;;;5.40;3.17;;;4.60;99.90;;;;;;5165279;28;20434;-48
2023/03/04 05:58:36;;;;;;;15.17;2.73;;;4.60;99.90;;;;;;5156652;28;20191;-48
2023/03/04 06:01:07;;;;;;;16.40;3.37;;;4.50;99.90;;;;;;5155914;28;20439;-50
2023/03/04 06:03:38;;;;;;;8.13;2.50;;;4.60;99.90;;;;;;5165587;28;20458;-49
2023/03/04 06:06:09;;;;;;;3.63;2.30;;;4.60;99.90;;;;;;5161101;28;20461;-50
2023/03/04 06:08:39;;;;;;;10.63;3.10;;;4.50;99.90;;;;;;5165770;28;20178;-50
2023/03/04 06:11:10;;;;;;;4.33;2.93;;;4.50;99.90;;;;;;5162991;28;20202;-49
2023/03/04 06:13:40;;;;;;;10.40;3.20;;;4.60;99.90;;;;;;5167271;28;20293;-48
2023/03/04 06:16:11;;;;;;;15.87;4.00;;;4.50;99.90;;;;;;5163617;28;20591;-50
2023/03/04 06:18:42;;;;;;;11.70;3.03;;;4.60;99.90;;;;;;5167885;28;20544;-50
2023/03/04 06:21:12;;;;;;;10.07;2.80;;;4.60;99.90;;;;;;5161435;28;20197;-49
2023/03/04 06:23:44;;;;;;;5.90;2.60;;;4.50;99.90;;;;;;5165059;28;20213;-51
2023/03/04 06:26:14;;;;;;;10.10;3.17;;;4.60;99.90;;;;;;5163426;28;20717;-50
2023/03/04 06:28:45;;;;;;;7.97;2.20;;;4.60;99.90;;;;;;5163653;28;20438;-50
2023/03/04 06:31:16;;;;;;;10.97;2.93;;;4.60;99.90;;;;;;5163627;28;20173;-49
2023/03/04 06:33:47;;;;;;;9.73;2.93;;;4.60;99.90;;;;;;5164724;28;20298;-49
2023/03/04 06:36:18;;;;;;;26.20;3.27;;;4.70;99.90;;;;;;5165980;28;20592;-48
2023/03/04 06:38:49;;;;;;;5.40;2.30;;;4.70;99.90;;;;;;5160838;28;20184;-48
2023/03/04 06:41:19;;;;;;;15.53;3.17;;;4.70;99.90;;;;;;5178217;28;20438;-48
2023/03/04 06:43:53;;;;;;;6.83;2.60;;;4.70;99.90;;;;;;5153157;28;20475;-48
2023/03/04 06:46:24;;;;;;;5.47;2.50;;;4.70;99.90;;;;;;5162659;28;20276;-52
2023/03/04 06:48:55;;;;;;;22.73;3.10;;;4.70;99.90;;;;;;5172957;28;21056;-48
2023/03/04 06:51:26;;;;;;;16.67;2.60;;;4.60;99.90;;;;;;5163635;28;20841;-47
2023/03/04 06:53:57;;;;;;;6.17;2.97;;;4.70;99.90;;;;;;5165701;28;20556;-55
2023/03/04 06:56:28;;;;;;;15.63;2.90;;;4.80;99.90;;;;;;5165922;28;20458;-47
2023/03/04 06:58:58;;;;;;;16.73;2.40;;;4.80;99.90;;;;;;5163863;28;20732;-53
2023/03/04 07:01:29;;;;;;;15.63;2.87;;;4.70;99.90;;;;;;5169946;28;20218;-47
2023/03/04 07:04:00;;;;;;;16.87;3.50;;;4.70;99.90;;;;;;5163225;28;20302;-48
2023/03/04 07:06:31;;;;;;;6.20;2.30;;;4.80;99.90;;;;;;5168046;28;20268;-48
2023/03/04 07:09:02;;;;;;;14.70;3.07;;;4.80;99.90;;;;;;5164791;28;20226;-47
2023/03/04 07:11:32;;;;;;;8.13;2.70;;;4.90;99.90;;;;;;5147248;28;20470;-52
2023/03/04 07:14:03;;;;;;;6.93;2.60;;;4.80;99.90;;;;;;5167801;28;20264;-48
2023/03/04 07:16:34;;;;;;;8.67;2.90;;;4.90;99.90;;;;;;5161391;28;20195;-47
2023/03/04 07:19:04;;;;;;;5.23;2.50;;;4.80;99.90;;;;;;5160548;28;20186;-49
2023/03/04 07:21:36;;;;;;;3.50;2.10;;;4.80;99.90;;;;;;5158896;28;20189;-53
2023/03/04 07:24:07;;;;;;;6.30;2.40;;;4.70;99.90;;;;;;5159753;28;20231;-49
2023/03/04 07:26:38;;;;;;;6.77;2.43;;;4.70;99.90;;;;;;5161692;28;20506;-48
2023/03/04 07:29:08;;;;;;;2.37;1.90;;;4.70;99.90;;;;;;5159463;28;20235;-47
2023/03/04 07:31:39;;;;;;;11.50;3.13;;;4.70;99.90;;;;;;5162224;28;20273;-48
2023/03/04 07:34:12;;;;;;;5.97;2.70;;;4.80;99.90;;;;;;5163463;28;20264;-47
2023/03/04 07:36:43;;;;;;;7.63;2.17;;;4.90;99.90;;;;;;5161186;28;20187;-47
2023/03/04 07:39:14;;;;;;;2.80;2.17;;;4.80;99.90;;;;;;5167070;28;20484;-47
2023/03/04 07:41:44;;;;;;;6.10;2.47;;;5.00;99.90;;;;;;5163844;28;20220;-46
2023/03/04 07:44:15;;;;;;;6.30;2.50;;;5.00;99.90;;;;;;5166290;28;20246;-48
2023/03/04 07:46:46;;;;;;;13.83;2.50;;;5.10;99.90;;;;;;5160808;28;20278;-48
2023/03/04 07:49:16;;;;;;;6.80;2.37;;;5.20;99.90;;;;;;5156721;28;20187;-47
2023/03/04 07:51:47;;;;;;;4.20;2.43;;;5.20;99.90;;;;;;5159679;28;20237;-47
2023/03/04 07:54:19;;;;;;;4.00;1.97;;;5.10;99.90;;;;;;5163746;28;20684;-47
2023/03/04 07:56:49;;;;;;;7.60;2.53;;;5.20;99.90;;;;;;5156047;28;20179;-47
2023/03/04 07:59:20;;;;;;;2.67;2.33;;;5.30;99.90;;;;;;5163575;28;20437;-48
2023/03/04 08:01:50;;;;;;;5.30;2.47;;;5.40;99.90;;;;;;5157254;28;20730;-47
2023/03/04 08:04:21;;;;;;;7.40;2.73;;;5.50;99.90;;;;;;5157761;28;20213;-48
2023/03/04 08:06:52;;;;;;;9.10;2.10;;;5.50;99.90;;;;;;5165352;28;20240;-49
2023/03/04 08:09:22;;;;;;;4.10;2.17;;;5.70;99.90;;;;;;5157447;28;20193;-50
2023/03/04 08:11:53;;;;;;;7.33;2.03;;;5.80;99.90;;;;;;5173130;28;20207;-47
2023/03/04 08:14:23;;;;;;;4.93;1.77;;;5.70;99.90;;;;;;5154585;28;20200;-48
2023/03/04 08:16:54;;;;;;;5.40;1.70;;;5.60;99.90;;;;;;5157511;28;20268;-49
2023/03/04 08:19:25;;;;;;;7.40;2.00;;;5.60;99.90;;;;;;5156011;28;20187;-48
2023/03/04 08:21:55;;;;;;;3.80;1.37;;;5.70;99.90;;;;;;5147270;28;20234;-48
2023/03/04 08:24:26;;;;;;;5.53;2.40;;;5.60;99.90;;;;;;5159220;28;20459;-48
2023/03/04 08:26:57;;;;;;;2.67;1.63;;;5.50;99.90;;;;;;5147776;28;20204;-47
2023/03/04 08:29:28;;;;;;;1.93;1.73;;;5.40;99.90;;;;;;5145289;28;20441;-49
2023/03/04 08:31:59;;;;;;;3.27;1.70;;;5.30;99.90;;;;;;5162176;28;20189;-48
2023/03/04 08:34:30;;;;;;;2.10;0.93;;;5.40;99.90;;;;;;5161582;28;20675;-50
2023/03/04 08:37:00;;;;;;;8.40;1.83;;;5.40;99.90;;;;;;5163185;28;20191;-48
2023/03/04 08:39:32;;;;;;;3.43;1.47;;;5.40;99.90;;;;;;5148726;28;20443;-49
2023/03/04 08:42:02;;;;;;;9.43;1.80;;;5.60;99.90;;;;;;5157217;28;20274;-48
2023/03/04 08:44:33;;;;;;;16.97;2.30;;;5.50;99.90;;;;;;5152278;28;20624;-49
2023/03/04 08:47:04;;;;;;;6.03;1.40;;;5.60;99.90;;;;;;5155452;28;20275;-49
2023/03/04 08:49:35;;;;;;;6.40;1.33;;;5.70;99.90;;;;;;5160568;28;20270;-48
2023/03/04 08:52:06;;;;;;;11.13;2.60;;;5.80;99.90;;;;;;5158968;28;20445;-49
2023/03/04 08:54:36;;;;;;;3.73;1.23;;;6.00;99.90;;;;;;5158920;28;20201;-48
2023/03/04 08:57:07;;;;;;;6.40;1.70;;;5.80;99.90;;;;;;5155151;28;20195;-48
2023/03/04 08:59:37;;;;;;;4.87;1.60;;;5.80;99.90;;;;;;5149774;28;20197;-51
2023/03/04 09:02:09;;;;;;;3.53;2.07;;;6.00;99.90;;;;;;5150447;28;20192;-48
2023/03/04 09:04:40;;;;;;;12.50;2.27;;;6.00;99.90;;;;;;5155975;28;20239;-48
2023/03/04 09:07:11;;;;;;;7.20;1.60;;;5.90;99.90;;;;;;5161552;28;20547;-50
2023/03/04 09:09:41;;;;;;;5.67;2.07;;;6.10;99.90;;;;;;5162629;28;20187;-49
2023/03/04 09:12:12;;;;;;;9.00;2.03;;;6.20;99.90;;;;;;5160815;28;20903;-49
2023/03/04 09:14:43;;;;;;;6.27;2.90;;;6.30;99.90;;;;;;5164219;28;20207;-49
2023/03/04 09:17:13;;;;;;;5.90;1.70;;;6.30;99.90;;;;;;5164268;28;20275;-49
2023/03/04 09:19:44;;;;;;;7.23;1.77;;;6.40;99.90;;;;;;5162879;28;20181;-49
2023/03/04 09:22:15;;;;;;;4.80;2.50;;;6.60;99.90;;;;;;5160580;28;20257;-47
2023/03/04 09:24:45;;;;;;;7.83;1.67;;;6.60;99.90;;;;;;5164451;28;20732;-49
2023/03/04 09:27:16;;;;;;;2.63;1.70;;;6.50;99.90;;;;;;5164168;28;20296;-48
2023/03/04 09:29:47;;;;;;;9.40;2.50;;;6.70;99.90;;;;;;5163926;28;20185;-49
2023/03/04 09:32:17;;;;;;;3.60;1.60;;;6.70;99.90;;;;;;5163191;28;20670;-49
2023/03/04 09:34:48;;;;;;;3.07;1.50;;;6.80;99.90;;;;;;5161044;28;20204;-51
2023/03/04 09:37:19;;;;;;;6.53;1.53;;;6.90;99.90;;;;;;5152487;28;20224;-49
2023/03/04 09:39:50;;;;;;;4.93;1.83;;;7.10;99.90;;;;;;5153609;28;20642;-49
2023/03/04 09:42:32;;;;;;;2.70;1.37;;;7.10;99.90;;;;;;5158848;28;20637;-51
2023/03/04 09:45:06;;;;;;;4.43;1.93;;;7.10;99.90;;;;;;5163713;28;20488;-49
2023/03/04 09:47:37;;;;;;;13.43;2.73;;;7.20;99.90;;;;;;5161568;28;20459;-49
2023/03/04 09:50:10;;;;;;;7.60;2.30;;;7.00;99.90;;;;;;5150838;28;20440;-51
2023/03/04 09:53:00;;;;;;;6.47;1.73;;;7.00;99.90;;;;;;5151114;28;20437;-52
2023/03/04 09:55:38;;;;;;;9.00;2.47;;;6.90;99.90;;;;;;5161374;28;21119;-48
2023/03/04 09:58:37;;;;;;;14.23;2.97;;;6.90;99.90;;;;;;5154927;28;20443;-49
2023/03/04 10:01:21;;;;;;;9.33;1.63;;;6.90;99.90;;;;;;5164397;28;20436;-50
2023/03/04 10:03:58;;;;;;;13.23;2.00;;;6.90;99.90;;;;;;5164499;28;20471;-48
2023/03/04 10:06:30;;;;;;;8.20;2.43;;;7.00;99.90;;;;;;5165024;28;20455;-49
2023/03/04 10:09:42;;;;;;;4.30;2.13;;;7.00;99.90;;;;;;5155577;28;21171;-49
2023/03/04 10:12:18;;;;;;;5.73;1.83;;;7.10;99.90;;;;;;5162489;28;20500;-47
2023/03/04 10:14:56;;;;;;;9.43;2.70;;;7.00;99.90;;;;;;5178525;28;21002;-49
2023/03/04 10:17:27;;;;;;;14.67;2.67;;;7.30;99.90;;;;;;5163663;28;20434;-48
2023/03/04 10:20:22;;;;;;;12.20;2.40;;;7.20;99.90;;;;;;5160495;28;20448;-51
2023/03/04 10:23:07;;;;;;;3.53;1.50;;;7.50;99.90;;;;;;5159355;28;20193;-51
2023/03/04 10:25:43;;;;;;;3.80;1.80;;;7.50;99.90;;;;;;5156218;28;20803;-51
2023/03/04 10:28:32;;;;;;;8.43;3.20;;;7.60;99.90;;;;;;5162023;28;20470;-49
2023/03/04 10:31:35;;;;;;;16.20;2.83;;;7.70;99.90;;;;;;5159931;28;20855;-50
2023/03/04 10:34:06;;;;;;;4.57;1.70;;;7.90;99.90;;;;;;5161000;28;20448;-50
2023/03/04 10:36:42;;;;;;;6.70;2.57;;;7.60;99.90;;;;;;5159586;28;20428;-50
2023/03/04 10:39:20;;;;;;;13.67;2.90;;;7.60;99.90;;;;;;5160133;28;20223;-51
2023/03/04 10:41:58;;;;;;;7.53;2.17;;;7.50;99.90;;;;;;5155137;28;20470;-54
2023/03/04 10:44:31;;;;;;;7.33;3.13;;;7.60;99.90;;;;;;5174168;28;20566;-50
2023/03/04 10:47:07;;;;;;;12.70;2.30;;;7.60;99.90;;;;;;5161715;28;20540;-48
2023/03/04 10:49:52;;;;;;;8.03;2.70;;;7.60;99.90;;;;;;5162472;28;20451;-50
2023/03/04 10:52:48;;;;;;;8.90;2.40;;;7.40;99.90;;;;;;5159256;28;21011;-50
2023/03/04 10:55:23;;;;;;;7.17;2.50;;;7.20;99.90;;;;;;5159630;28;20456;-49
2023/03/04 10:58:02;;;;;;;9.77;3.57;;;7.20;99.90;;;;;;5158515;28;20435;-50
2023/03/04 11:00:36;;;;;;;10.87;3.57;;;7.20;99.90;;;;;;5175630;28;20452;-51
2023/03/04 11:03:26;;;;;;;14.43;3.17;;;7.40;99.90;;;;;;5159317;28;20940;-48
2023/03/04 11:06:20;;;;;;;5.77;2.63;;;7.50;99.90;;;;;;5159380;28;20438;-49
2023/03/04 11:08:57;;;;;;;16.17;3.30;;;7.50;99.90;;;;;;5160503;28;20452;-50
2023/03/04 11:11:41;;;;;;;6.57;3.10;;;7.50;99.90;;;;;;5176387;28;20444;-49
2023/03/04 11:14:30;;;;;;;29.23;4.97;;;7.50;99.90;;;;;;5161856;28;20448;-49
2023/03/04 11:17:24;;;;;;;17.20;6.10;;;7.50;99.90;;;;;;5177155;28;20444;-50
2023/03/04 11:20:04;;;;;;;8.77;3.10;;;7.70;99.90;;;;;;5158976;28;20778;-49
2023/03/04 11:22:35;;;;;;;7.73;3.20;;;7.90;99.90;;;;;;5161748;28;20436;-49
2023/03/04 11:25:10;;;;;;;10.77;2.50;;;8.10;99.90;;;;;;5158977;28;20563;-49
2023/03/04 11:27:46;;;;;;;20.90;5.80;;;8.00;99.90;;;;;;5155650;28;20426;-53
2023/03/04 11:30:34;;;;;;;9.53;3.37;;;8.10;99.90;;;;;;5167759;28;20958;-50
2023/03/04 11:33:14;;;;;;;13.43;4.43;;;7.90;99.90;;;;;;5154703;28;20438;-49
2023/03/04 11:35:51;;;;;;;11.17;3.00;;;7.70;99.90;;;;;;5158759;28;22360;-54
2023/03/04 11:38:46;;;;;;;14.00;4.10;;;7.70;99.90;;;;;;5162959;28;20447;-48
2023/03/04 11:41:32;;;;;;;16.73;3.67;;;7.90;99.90;;;;;;5157016;28;20502;-49
2023/03/04 11:44:05;;;;;;;6.33;3.07;;;7.80;99.90;;;;;;5158766;28;20494;-50
2023/03/04 11:47:08;;;;;;;14.10;3.73;;;7.70;99.90;;;;;;5160957;28;20471;-48
2023/03/04 11:49:50;;;;;;;17.13;4.30;;;7.90;99.90;;;;;;5165059;28;20527;-49
2023/03/04 11:52:34;;;;;;;19.23;4.03;;;8.20;99.90;;;;;;5155680;28;20527;-50
2023/03/04 11:55:10;;;;;;;13.93;5.23;;;8.30;99.90;;;;;;5172574;28;20455;-52
2023/03/04 11:57:48;;;;;;;23.10;4.97;;;8.10;99.90;;;;;;5158213;28;20523;-49
2023/03/04 12:00:26;;;;;;;22.43;5.10;;;8.20;99.90;;;;;;5154348;28;20920;-52
2023/03/04 12:03:18;;;;;;;28.30;4.13;;;8.20;99.90;;;;;;5155592;28;20439;-53
2023/03/04 12:06:07;;;;;;;13.23;3.03;;;8.00;99.90;;;;;;5158365;28;20463;-48
2023/03/04 12:08:56;;;;;;;14.80;4.90;;;8.00;99.90;;;;;;5161893;28;20432;-50
2023/03/04 12:11:39;;;;;;;18.30;3.77;;;7.90;99.90;;;;;;5163913;28;20424;-48
2023/03/04 12:14:29;;;;;;;23.33;5.43;;;7.80;99.90;;;;;;5160310;28;20456;-50
2023/03/04 12:17:40;;;;;;;16.27;4.10;;;8.00;99.90;;;;;;5163659;28;20439;-49
2023/03/04 12:20:20;;;;;;;18.63;4.23;;;8.00;99.90;;;;;;5161987;28;20436;-48
2023/03/04 12:23:07;;;;;;;11.40;4.40;;;8.00;99.30;;;;;;5163997;28;20880;-48
2023/03/04 12:25:41;;;;;;;17.43;3.53;;;7.90;98.40;;;;;;5164260;28;20507;-50
2023/03/04 12:28:14;;;;;;;10.27;2.67;;;8.10;98.10;;;;;;5164786;28;20463;-50
2023/03/04 12:30:53;;;;;;;14.10;3.37;;;7.80;98.00;;;;;;5164920;28;20427;-48
2023/03/04 12:33:41;;;;;;;11.60;3.57;;;7.90;97.80;;;;;;5160165;28;20464;-50
2023/03/04 12:36:33;;;;;;;11.60;2.80;;;7.80;98.10;;;;;;5178518;28;20443;-49
2023/03/04 12:39:03;;;;;;;11.40;2.73;;;7.80;96.40;;;;;;5168039;28;20440;-49
2023/03/04 12:41:44;;;;;;;12.17;3.40;;;7.80;96.40;;;;;;5167297;28;20442;-49
2023/03/04 12:44:15;;;;;;;13.47;3.67;;;7.80;95.90;;;;;;5166943;28;20212;-49
2023/03/04 12:47:05;;;;;;;16.77;3.57;;;7.70;95.80;;;;;;5167436;28;20865;-49
2023/03/04 12:49:57;;;;;;;9.50;2.80;;;7.80;95.90;;;;;;5165479;28;20530;-49
2023/03/04 12:52:37;;;;;;;6.17;2.30;;;7.80;95.60;;;;;;5167912;28;20444;-49
2023/03/04 12:55:13;;;;;;;12.33;2.60;;;7.90;94.20;;;;;;5167821;28;20455;-51
2023/03/04 12:57:44;;;;;;;12.53;2.97;;;7.90;91.70;;;;;;5168379;28;20939;-49
2023/03/04 13:00:31;;;;;;;8.03;2.50;;;8.00;90.90;;;;;;5170117;28;20479;-51
2023/03/04 13:03:10;;;;;;;15.27;3.00;;;8.00;88.80;;;;;;5170524;28;20729;-48
2023/03/04 13:06:05;;;;;;;16.07;4.03;;;7.80;86.50;;;;;;5184650;28;20420;-48
2023/03/04 13:08:52;;;;;;;7.37;2.50;;;7.70;85.80;;;;;;5170386;28;20431;-47
2023/03/04 13:11:26;;;;;;;13.20;3.50;;;7.60;87.10;;;;;;5170785;28;20490;-48
2023/03/04 13:14:13;;;;;;;13.07;3.50;;;7.60;89.00;;;;;;5167512;28;20541;-48
2023/03/04 13:16:46;;;;;;;8.20;2.87;;;7.60;89.70;;;;;;5179893;28;20444;-48
2023/03/04 13:19:49;;;;;;;12.97;2.87;;;7.70;86.60;;;;;;5169046;28;20432;-47
2023/03/04 13:22:43;;;;;;;14.13;3.07;;;7.50;85.30;;;;;;5166744;28;20797;-51
2023/03/04 13:25:38;;;;;;;8.47;3.17;;;7.50;87.50;;;;;;5149730;28;20468;-49